createdAt,value
2016-12-30T00:00:05.274Z,39.14
2016-12-30T00:01:15.479Z,39.43
2016-12-30T00:02:24.576Z,39.43
2016-12-30T00:03:33.698Z,39.33
2016-12-30T00:04:42.778Z,39.24
2016-12-30T00:05:52.233Z,39.43
2016-12-30T00:07:01.068Z,39.43
2016-12-30T00:08:10.152Z,39.53
2016-12-30T00:09:20.806Z,39.53
2016-12-30T00:10:30.280Z,39.33
2016-12-30T00:11:39.402Z,39.43
2016-12-30T00:12:48.078Z,39.04
2016-12-30T00:13:57.151Z,39.14
2016-12-30T00:15:06.245Z,39.43
2016-12-30T00:16:15.314Z,39.43
2016-12-30T00:17:24.387Z,39.72
2016-12-30T00:18:33.624Z,39.62
2016-12-30T00:19:42.696Z,39.81
2016-12-30T00:20:52.195Z,39.93
2016-12-30T00:22:01.659Z,39.81
2016-12-30T00:23:10.742Z,39.91
2016-12-30T00:24:20.577Z,40.51
2016-12-30T00:25:30.051Z,40.22
2016-12-30T00:26:38.732Z,40.41
2016-12-30T00:27:48.225Z,40.3
2016-12-30T00:28:56.951Z,40.22
2016-12-30T00:30:06.333Z,40.22
2016-12-30T00:31:15.413Z,40.31
2016-12-30T00:32:24.896Z,40.3
2016-12-30T00:33:33.976Z,40.61
2016-12-30T00:34:43.053Z,40.22
2016-12-30T00:35:53.062Z,40.22
2016-12-30T00:37:01.765Z,40.61
2016-12-30T00:38:11.239Z,40.61
2016-12-30T00:39:20.707Z,40.7
2016-12-30T00:40:29.780Z,40.51
2016-12-30T00:41:39.204Z,40.41
2016-12-30T00:42:48.277Z,40.51
2016-12-30T00:43:57.352Z,40.41
2016-12-30T00:45:06.443Z,40.61
2016-12-30T00:46:16.306Z,40.61
2016-12-30T00:47:25.290Z,40.51
2016-12-30T00:48:34.375Z,40.51
2016-12-30T00:49:43.853Z,40.51
2016-12-30T00:50:52.930Z,40.61
2016-12-30T00:52:02.010Z,40.63
2016-12-30T00:53:11.052Z,40.61
2016-12-30T00:54:19.734Z,40.7
2016-12-30T00:55:28.799Z,40.63
2016-12-30T00:56:38.256Z,40.63
2016-12-30T00:57:47.322Z,40.61
2016-12-30T00:58:56.556Z,40.63
2016-12-30T01:00:06.417Z,40.91
2016-12-30T01:01:16.268Z,40.81
2016-12-30T01:02:24.976Z,40.91
2016-12-30T01:03:34.045Z,40.91
2016-12-30T01:04:43.657Z,40.91
2016-12-30T01:05:52.357Z,40.91
2016-12-30T01:07:01.439Z,41.01
2016-12-30T01:08:10.522Z,41.11
2016-12-30T01:09:19.588Z,41.3
2016-12-30T01:10:29.197Z,41.3
2016-12-30T01:11:38.657Z,41.78
2016-12-30T01:12:47.344Z,41.68
2016-12-30T01:13:56.800Z,41.68
2016-12-30T01:15:05.875Z,41.88
2016-12-30T01:16:14.902Z,41.78
2016-12-30T01:17:23.987Z,41.47
2016-12-30T01:18:33.060Z,41.78
2016-12-30T01:19:42.526Z,41.78
2016-12-30T01:20:51.999Z,41.68
2016-12-30T01:22:01.430Z,41.88
2016-12-30T01:23:10.503Z,42.07
2016-12-30T01:24:19.191Z,42.07
2016-12-30T01:25:27.875Z,42.07
2016-12-30T01:26:36.966Z,41.78
2016-12-30T01:27:46.342Z,41.78
2016-12-30T01:28:55.041Z,41.88
2016-12-30T01:30:04.513Z,42.07
2016-12-30T01:31:13.190Z,41.97
2016-12-30T01:32:21.867Z,42.07
2016-12-30T01:33:31.244Z,42.26
2016-12-30T01:34:40.324Z,42.26
2016-12-30T01:35:49.028Z,42.07
2016-12-30T01:36:57.717Z,42.07
2016-12-30T01:38:06.790Z,42.26
2016-12-30T01:39:16.233Z,42.26
2016-12-30T01:40:25.703Z,42.46
2016-12-30T01:41:34.376Z,42.46
2016-12-30T01:42:43.844Z,42.46
2016-12-30T01:43:52.522Z,42.46
2016-12-30T01:45:01.688Z,42.46
2016-12-30T01:46:10.759Z,42.55
2016-12-30T01:47:19.836Z,42.65
2016-12-30T01:48:28.915Z,42.74
2016-12-30T01:49:38.388Z,42.74
2016-12-30T01:50:47.611Z,43.03
2016-12-30T01:51:56.675Z,42.93
2016-12-30T01:53:05.355Z,42.74
2016-12-30T01:54:14.423Z,42.74
2016-12-30T01:55:23.493Z,43.03
2016-12-30T01:56:32.957Z,42.93
2016-12-30T01:57:42.033Z,43.11
2016-12-30T01:58:51.118Z,43.23
2016-12-30T01:59:59.806Z,42.84
2016-12-30T02:01:10.057Z,43.13
2016-12-30T02:02:19.513Z,43.23
2016-12-30T02:03:29.363Z,43.41
2016-12-30T02:04:38.079Z,43.32
2016-12-30T02:05:47.154Z,43.51
2016-12-30T02:06:56.229Z,43.71
2016-12-30T02:08:05.732Z,43.71
2016-12-30T02:09:15.197Z,43.51
2016-12-30T02:10:24.265Z,43.41
2016-12-30T02:11:33.343Z,43.51
2016-12-30T02:12:42.811Z,43.41
2016-12-30T02:13:51.889Z,43.51
2016-12-30T02:15:00.969Z,43.8
2016-12-30T02:16:09.649Z,43.99
2016-12-30T02:17:19.102Z,43.8
2016-12-30T02:18:28.559Z,43.8
2016-12-30T02:19:37.645Z,43.71
2016-12-30T02:20:46.715Z,43.99
2016-12-30T02:21:55.397Z,44.09
2016-12-30T02:23:04.861Z,43.99
2016-12-30T02:24:13.533Z,44.19
2016-12-30T02:25:23.104Z,44.28
2016-12-30T02:26:32.171Z,43.99
2016-12-30T02:27:41.633Z,44.48
2016-12-30T02:28:50.722Z,44.09
2016-12-30T02:29:59.801Z,44.09
2016-12-30T02:31:08.993Z,44.19
2016-12-30T02:32:17.674Z,44.09
2016-12-30T02:33:27.134Z,44.76
2016-12-30T02:34:36.251Z,44.57
2016-12-30T02:35:45.321Z,44.48
2016-12-30T02:36:54.542Z,44.45
2016-12-30T02:38:03.237Z,44.57
2016-12-30T02:39:13.485Z,44.76
2016-12-30T02:40:23.329Z,44.84
2016-12-30T02:41:32.785Z,44.96
2016-12-30T02:42:41.867Z,44.55
2016-12-30T02:43:51.329Z,44.96
2016-12-30T02:45:00.395Z,44.93
2016-12-30T02:46:09.921Z,45.13
2016-12-30T02:47:19.768Z,45.05
2016-12-30T02:48:29.381Z,45.32
2016-12-30T02:49:38.452Z,45.32
2016-12-30T02:50:47.124Z,45.03
2016-12-30T02:51:56.222Z,45.61
2016-12-30T02:53:05.691Z,45.7
2016-12-30T02:54:14.516Z,45.61
2016-12-30T02:55:23.196Z,45.51
2016-12-30T02:56:33.059Z,45.22
2016-12-30T02:57:42.549Z,45.61
2016-12-30T02:58:51.638Z,45.61
2016-12-30T03:00:01.010Z,45.51
2016-12-30T03:01:10.080Z,45.51
2016-12-30T03:02:19.551Z,45.51
2016-12-30T03:03:28.245Z,45.51
2016-12-30T03:04:36.941Z,45.51
2016-12-30T03:05:46.504Z,45.51
2016-12-30T03:06:55.974Z,45.51
2016-12-30T03:08:05.842Z,45.34
2016-12-30T03:09:14.524Z,45.61
2016-12-30T03:10:24.375Z,45.22
2016-12-30T03:11:33.452Z,45.32
2016-12-30T03:12:42.147Z,45.53
2016-12-30T03:13:50.826Z,45.61
2016-12-30T03:14:59.900Z,45.51
2016-12-30T03:16:08.586Z,45.44
2016-12-30T03:17:18.594Z,45.63
2016-12-30T03:18:27.281Z,45.53
2016-12-30T03:19:36.340Z,45.53
2016-12-30T03:20:45.023Z,45.44
2016-12-30T03:21:53.704Z,45.53
2016-12-30T03:23:02.782Z,45.34
2016-12-30T03:24:12.248Z,45.63
2016-12-30T03:25:20.927Z,45.34
2016-12-30T03:26:29.605Z,45.53
2016-12-30T03:27:38.694Z,45.53
2016-12-30T03:28:47.916Z,45.53
2016-12-30T03:29:56.981Z,45.63
2016-12-30T03:31:06.053Z,45.53
2016-12-30T03:32:15.154Z,45.44
2016-12-30T03:33:24.614Z,45.34
2016-12-30T03:34:33.641Z,45.53
2016-12-30T03:35:42.719Z,45.44
2016-12-30T03:36:51.398Z,45.25
2016-12-30T03:38:00.495Z,45.44
2016-12-30T03:39:09.575Z,46.01
2016-12-30T03:40:18.947Z,46.01
2016-12-30T03:41:28.418Z,45.92
2016-12-30T03:42:37.097Z,46.01
2016-12-30T03:43:46.168Z,45.84
2016-12-30T03:44:55.249Z,45.83
2016-12-30T03:46:04.697Z,45.53
2016-12-30T03:47:14.152Z,45.73
2016-12-30T03:48:22.832Z,45.73
2016-12-30T03:49:32.292Z,45.83
2016-12-30T03:50:41.365Z,46.11
2016-12-30T03:51:50.539Z,46.21
2016-12-30T03:52:59.999Z,46.21
2016-12-30T03:54:08.691Z,46.31
2016-12-30T03:55:17.772Z,46.11
2016-12-30T03:56:26.844Z,46.01
2016-12-30T03:57:35.824Z,46.5
2016-12-30T03:58:45.698Z,46.5
2016-12-30T03:59:54.381Z,46.31
2016-12-30T04:01:03.057Z,46.31
2016-12-30T04:02:12.520Z,46.31
2016-12-30T04:03:21.895Z,46.59
2016-12-30T04:04:30.587Z,46.5
2016-12-30T04:05:39.270Z,46.5
2016-12-30T04:06:48.349Z,46.59
2016-12-30T04:07:57.038Z,46.69
2016-12-30T04:09:06.815Z,47.36
2016-12-30T04:10:15.884Z,46.98
2016-12-30T04:11:25.658Z,47.17
2016-12-30T04:12:34.735Z,46.98
2016-12-30T04:13:43.801Z,47.08
2016-12-30T04:14:53.235Z,47.27
2016-12-30T04:16:02.315Z,47.17
2016-12-30T04:17:11.393Z,46.98
2016-12-30T04:18:20.074Z,46.88
2016-12-30T04:19:29.149Z,46.98
2016-12-30T04:20:38.569Z,46.98
2016-12-30T04:21:48.825Z,47.36
2016-12-30T04:22:57.899Z,47.36
2016-12-30T04:24:07.772Z,47.08
2016-12-30T04:25:16.450Z,47.56
2016-12-30T04:26:25.544Z,47.36
2016-12-30T04:27:34.223Z,47.65
2016-12-30T04:28:43.298Z,47.36
2016-12-30T04:29:51.987Z,47.75
2016-12-30T04:31:01.456Z,47.65
2016-12-30T04:32:10.924Z,48.23
2016-12-30T04:33:19.608Z,47.94
2016-12-30T04:34:28.673Z,48.13
2016-12-30T04:35:37.734Z,47.94
2016-12-30T04:36:47.592Z,47.94
2016-12-30T04:37:57.143Z,48.33
2016-12-30T04:39:07.411Z,48.03
2016-12-30T04:40:16.883Z,48.23
2016-12-30T04:41:26.347Z,48.33
2016-12-30T04:42:35.420Z,48.43
2016-12-30T04:43:44.250Z,48.33
2016-12-30T04:44:52.934Z,48.61
2016-12-30T04:46:01.625Z,48.33
2016-12-30T04:47:11.083Z,48.52
2016-12-30T04:48:19.762Z,48.43
2016-12-30T04:49:28.833Z,48.4
2016-12-30T04:50:37.521Z,48.43
2016-12-30T04:51:46.599Z,48.33
2016-12-30T04:52:56.057Z,48.61
2016-12-30T04:54:04.741Z,48.02
2016-12-30T04:55:14.500Z,48.71
2016-12-30T04:56:23.972Z,49
2016-12-30T04:57:32.653Z,48.88
2016-12-30T04:58:42.123Z,48.81
2016-12-30T04:59:51.597Z,48.61
2016-12-30T05:01:00.972Z,48.59
2016-12-30T05:02:10.041Z,48.71
2016-12-30T05:03:19.114Z,48.71
2016-12-30T05:04:28.182Z,48.81
2016-12-30T05:05:37.251Z,48.43
2016-12-30T05:06:46.859Z,48.52
2016-12-30T05:07:55.543Z,48.9
2016-12-30T05:09:05.005Z,48.52
2016-12-30T05:10:14.465Z,48.61
2016-12-30T05:11:23.532Z,48.52
2016-12-30T05:12:32.617Z,48.52
2016-12-30T05:13:41.698Z,48.52
2016-12-30T05:14:50.770Z,48.43
2016-12-30T05:15:59.482Z,48.43
2016-12-30T05:17:08.946Z,48.81
2016-12-30T05:18:18.549Z,48.81
2016-12-30T05:19:27.239Z,48.81
2016-12-30T05:20:35.925Z,48.61
2016-12-30T05:21:45.004Z,48.43
2016-12-30T05:22:54.463Z,48.61
2016-12-30T05:24:03.165Z,48.61
2016-12-30T05:25:12.239Z,48.43
2016-12-30T05:26:22.487Z,48.81
2016-12-30T05:27:31.560Z,48.43
2016-12-30T05:28:41.019Z,48.81
2016-12-30T05:29:49.702Z,48.52
2016-12-30T05:30:59.154Z,48.52
2016-12-30T05:32:08.619Z,48.52
2016-12-30T05:33:17.689Z,48.61
2016-12-30T05:34:27.146Z,49
2016-12-30T05:35:36.376Z,48.61
2016-12-30T05:36:45.437Z,48.61
2016-12-30T05:37:54.511Z,48.43
2016-12-30T05:39:03.204Z,48.52
2016-12-30T05:40:13.447Z,48.43
2016-12-30T05:41:23.062Z,48.71
2016-12-30T05:42:32.532Z,48.81
2016-12-30T05:43:41.606Z,48.71
2016-12-30T05:44:51.460Z,48.71
2016-12-30T05:46:00.549Z,48.9
2016-12-30T05:47:09.764Z,48.9
2016-12-30T05:48:18.846Z,48.81
2016-12-30T05:49:28.695Z,48.61
2016-12-30T05:50:37.379Z,49
2016-12-30T05:51:46.441Z,48.81
2016-12-30T05:52:55.815Z,49.1
2016-12-30T05:54:04.508Z,48.9
2016-12-30T05:55:13.206Z,48.9
2016-12-30T05:56:21.916Z,49.1
2016-12-30T05:57:30.600Z,49.48
2016-12-30T05:58:39.666Z,49.58
2016-12-30T05:59:48.740Z,49.48
2016-12-30T06:00:57.806Z,49.29
2016-12-30T06:02:06.886Z,49.29
2016-12-30T06:03:15.974Z,49.87
2016-12-30T06:04:25.389Z,49.48
2016-12-30T06:05:34.090Z,49.77
2016-12-30T06:06:43.550Z,49.48
2016-12-30T06:07:52.624Z,49.68
2016-12-30T06:09:02.094Z,49.87
2016-12-30T06:10:10.868Z,49.68
2016-12-30T06:11:20.332Z,49.77
2016-12-30T06:12:29.018Z,50.06
2016-12-30T06:13:37.697Z,49.96
2016-12-30T06:14:47.161Z,50.06
2016-12-30T06:15:56.255Z,49.96
2016-12-30T06:17:05.324Z,49.87
2016-12-30T06:18:14.827Z,49.68
2016-12-30T06:19:23.503Z,50.15
2016-12-30T06:20:32.199Z,50.06
2016-12-30T06:21:41.008Z,49.77
2016-12-30T06:22:50.475Z,49.87
2016-12-30T06:23:59.550Z,50.06
2016-12-30T06:25:09.008Z,50.54
2016-12-30T06:26:17.694Z,50.25
2016-12-30T06:27:26.768Z,50.15
2016-12-30T06:28:36.244Z,50.25
2016-12-30T06:29:44.925Z,50.25
2016-12-30T06:30:54.000Z,50.25
2016-12-30T06:32:03.095Z,50.35
2016-12-30T06:33:12.853Z,50.63
2016-12-30T06:34:21.925Z,50.73
2016-12-30T06:35:30.982Z,50.83
2016-12-30T06:36:40.446Z,50.83
2016-12-30T06:37:50.302Z,50.93
2016-12-30T06:38:58.982Z,50.73
2016-12-30T06:40:07.679Z,50.45
2016-12-30T06:41:16.621Z,50.83
2016-12-30T06:42:25.769Z,50.45
2016-12-30T06:43:35.280Z,50.63
2016-12-30T06:44:44.966Z,50.54
2016-12-30T06:45:53.753Z,50.63
2016-12-30T06:47:02.440Z,50.54
2016-12-30T06:48:11.514Z,50.73
2016-12-30T06:49:20.597Z,50.54
2016-12-30T06:50:29.979Z,50.63
2016-12-30T06:51:39.446Z,51.02
2016-12-30T06:52:49.339Z,51.09
2016-12-30T06:53:58.028Z,51.02
2016-12-30T06:55:06.709Z,51.02
2016-12-30T06:56:16.486Z,51.02
2016-12-30T06:57:25.946Z,51.12
2016-12-30T06:58:35.039Z,51.31
2016-12-30T06:59:44.108Z,51.21
2016-12-30T07:00:53.601Z,51.12
2016-12-30T07:02:02.389Z,50.83
2016-12-30T07:03:11.075Z,51.12
2016-12-30T07:04:19.764Z,51.12
2016-12-30T07:05:29.617Z,51.21
2016-12-30T07:06:38.312Z,50.83
2016-12-30T07:07:48.567Z,50.73
2016-12-30T07:08:58.032Z,50.63
2016-12-30T07:10:07.100Z,50.73
2016-12-30T07:11:16.574Z,51.21
2016-12-30T07:12:25.643Z,50.83
2016-12-30T07:13:35.105Z,51.12
2016-12-30T07:14:43.790Z,51.02
2016-12-30T07:15:52.862Z,51.02
2016-12-30T07:17:02.324Z,50.93
2016-12-30T07:18:11.794Z,51.12
2016-12-30T07:19:21.413Z,51.02
2016-12-30T07:20:30.484Z,51.41
2016-12-30T07:21:39.845Z,51.31
2016-12-30T07:22:48.910Z,51.41
2016-12-30T07:23:58.381Z,51.57
2016-12-30T07:25:07.184Z,52.34
2016-12-30T07:26:16.648Z,53.09
2016-12-30T07:27:25.335Z,53.92
2016-12-30T07:28:34.794Z,54.19
2016-12-30T07:29:44.260Z,54.96
2016-12-30T07:30:53.242Z,56.08
2016-12-30T07:32:02.340Z,56.34
2016-12-30T07:33:11.417Z,56.89
2016-12-30T07:34:20.497Z,57.65
2016-12-30T07:35:30.387Z,58.49
2016-12-30T07:36:39.530Z,58.39
2016-12-30T07:37:48.230Z,59.13
2016-12-30T07:38:57.811Z,59.61
2016-12-30T07:40:06.502Z,60.06
2016-12-30T07:41:15.590Z,60.16
2016-12-30T07:42:25.020Z,60.51
2016-12-30T07:43:34.095Z,61.08
2016-12-30T07:44:43.573Z,61.25
2016-12-30T07:45:52.762Z,61.72
2016-12-30T07:47:01.465Z,61.72
2016-12-30T07:48:11.340Z,62.11
2016-12-30T07:49:20.027Z,62.55
2016-12-30T07:50:29.167Z,62.55
2016-12-30T07:51:39.025Z,62.74
2016-12-30T07:52:48.485Z,62.62
2016-12-30T07:53:58.253Z,63
2016-12-30T07:55:06.948Z,62.81
2016-12-30T07:56:16.471Z,62.9
2016-12-30T07:57:26.326Z,63.35
2016-12-30T07:58:35.396Z,63.26
2016-12-30T07:59:44.078Z,63.07
2016-12-30T08:00:53.165Z,63.16
2016-12-30T08:02:02.650Z,63.16
2016-12-30T08:03:11.735Z,63.35
2016-12-30T08:04:20.412Z,63.23
2016-12-30T08:05:30.425Z,63.23
2016-12-30T08:06:39.223Z,62.78
2016-12-30T08:07:49.398Z,62.3
2016-12-30T08:08:58.084Z,62.11
2016-12-30T08:10:07.159Z,61.28
2016-12-30T08:11:16.588Z,60.71
2016-12-30T08:12:25.276Z,60.04
2016-12-30T08:13:33.988Z,59.4
2016-12-30T08:14:43.282Z,58.44
2016-12-30T08:15:53.140Z,57.68
2016-12-30T08:17:02.778Z,57.42
2016-12-30T08:18:12.251Z,56.65
2016-12-30T08:19:22.120Z,56.2
2016-12-30T08:20:31.198Z,55.53
2016-12-30T08:21:40.261Z,54.89
2016-12-30T08:22:49.086Z,54.41
2016-12-30T08:23:58.541Z,54.22
2016-12-30T08:25:07.999Z,53.77
2016-12-30T08:26:17.471Z,53.19
2016-12-30T08:27:26.928Z,52.91
2016-12-30T08:28:36.002Z,52.26
2016-12-30T08:29:45.104Z,52.26
2016-12-30T08:30:54.575Z,51.4
2016-12-30T08:32:03.274Z,51.42
2016-12-30T08:33:12.748Z,50.84
2016-12-30T08:34:22.604Z,50.84
2016-12-30T08:35:32.068Z,50.39
2016-12-30T08:36:41.139Z,50.68
2016-12-30T08:37:50.600Z,50.01
2016-12-30T08:39:00.063Z,49.82
2016-12-30T08:40:09.871Z,49.93
2016-12-30T08:41:18.556Z,49.36
2016-12-30T08:42:28.407Z,49.26
2016-12-30T08:43:37.478Z,48.9
2016-12-30T08:44:46.551Z,48.71
2016-12-30T08:45:55.227Z,48.43
2016-12-30T08:47:04.690Z,48.81
2016-12-30T08:48:13.377Z,48.33
2016-12-30T08:49:22.055Z,48.33
2016-12-30T08:50:31.133Z,48.07
2016-12-30T08:51:40.691Z,48.25
2016-12-30T08:52:50.163Z,47.97
2016-12-30T08:53:58.879Z,47.68
2016-12-30T08:55:08.736Z,47.39
2016-12-30T08:56:17.812Z,47.49
2016-12-30T08:57:26.803Z,47.3
2016-12-30T08:58:37.048Z,47.13
2016-12-30T08:59:46.129Z,47.31
2016-12-30T09:00:55.198Z,47.22
2016-12-30T09:02:03.901Z,46.93
2016-12-30T09:03:12.905Z,47.03
2016-12-30T09:04:22.373Z,46.36
2016-12-30T09:05:31.459Z,46.67
2016-12-30T09:06:40.196Z,46.57
2016-12-30T09:07:49.269Z,46.57
2016-12-30T09:08:58.733Z,46.38
2016-12-30T09:10:07.437Z,46.47
2016-12-30T09:11:16.916Z,46.47
2016-12-30T09:12:26.386Z,46.28
2016-12-30T09:13:35.086Z,46.09
2016-12-30T09:14:44.335Z,46.09
2016-12-30T09:15:53.422Z,45.83
2016-12-30T09:17:03.373Z,45.63
2016-12-30T09:18:12.100Z,45.53
2016-12-30T09:19:20.799Z,46.01
2016-12-30T09:20:30.413Z,46.01
2016-12-30T09:21:39.485Z,46.01
2016-12-30T09:22:48.571Z,45.83
2016-12-30T09:23:57.307Z,45.44
2016-12-30T09:25:06.065Z,45.36
2016-12-30T09:26:15.287Z,45.36
2016-12-30T09:27:24.386Z,45.94
2016-12-30T09:28:33.870Z,45.36
2016-12-30T09:29:43.719Z,45.46
2016-12-30T09:30:53.191Z,45.36
2016-12-30T09:32:03.005Z,45.27
2016-12-30T09:33:12.496Z,45.27
2016-12-30T09:34:21.587Z,45
2016-12-30T09:35:30.287Z,44.71
2016-12-30T09:36:39.023Z,44.81
2016-12-30T09:37:49.032Z,44.9
2016-12-30T09:38:58.235Z,44.9
2016-12-30T09:40:07.101Z,44.9
2016-12-30T09:41:16.192Z,44.9
2016-12-30T09:42:25.301Z,44.9
2016-12-30T09:43:34.779Z,44.81
2016-12-30T09:44:43.522Z,44.9
2016-12-30T09:45:52.626Z,44.71
2016-12-30T09:47:02.084Z,44.81
2016-12-30T09:48:11.590Z,44.93
2016-12-30T09:49:21.189Z,44.93
2016-12-30T09:50:30.696Z,44.73
2016-12-30T09:51:39.399Z,45.12
2016-12-30T09:52:48.993Z,45.21
2016-12-30T09:53:58.076Z,45.03
2016-12-30T09:55:07.255Z,45.6
2016-12-30T09:56:15.949Z,45.41
2016-12-30T09:57:24.761Z,45.21
2016-12-30T09:58:34.244Z,45.48
2016-12-30T09:59:42.963Z,45.97
2016-12-30T10:00:52.428Z,45.41
2016-12-30T10:02:01.519Z,45.58
2016-12-30T10:03:10.991Z,45.58
2016-12-30T10:04:20.886Z,45.97
2016-12-30T10:05:29.566Z,45.97
2016-12-30T10:06:39.209Z,45.87
2016-12-30T10:07:48.686Z,45.97
2016-12-30T10:08:57.785Z,46.06
2016-12-30T10:10:06.509Z,46.15
2016-12-30T10:11:15.202Z,46.25
2016-12-30T10:12:24.593Z,46.06
2016-12-30T10:13:33.300Z,46.15
2016-12-30T10:14:42.429Z,45.87
2016-12-30T10:15:51.173Z,46.06
2016-12-30T10:16:59.867Z,45.99
2016-12-30T10:18:08.927Z,45.99
2016-12-30T10:19:17.613Z,46.08
2016-12-30T10:20:26.320Z,46.06
2016-12-30T10:21:35.781Z,46.18
2016-12-30T10:22:45.254Z,46.18
2016-12-30T10:23:54.485Z,46.37
2016-12-30T10:25:03.958Z,46.35
2016-12-30T10:26:12.648Z,46.18
2016-12-30T10:27:21.723Z,46.08
2016-12-30T10:28:30.808Z,46.28
2016-12-30T10:29:40.275Z,46.66
2016-12-30T10:30:48.955Z,46.15
2016-12-30T10:31:57.637Z,46.47
2016-12-30T10:33:06.713Z,46.55
2016-12-30T10:34:16.182Z,46.64
2016-12-30T10:35:25.809Z,46.56
2016-12-30T10:36:34.889Z,46.56
2016-12-30T10:37:43.961Z,46.64
2016-12-30T10:38:53.817Z,46.55
2016-12-30T10:40:03.474Z,46.93
2016-12-30T10:41:12.471Z,47.12
2016-12-30T10:42:22.038Z,47.12
2016-12-30T10:43:31.116Z,47.22
2016-12-30T10:44:39.805Z,47.12
2016-12-30T10:45:49.265Z,47.12
2016-12-30T10:46:58.305Z,47.41
2016-12-30T10:48:07.767Z,47.22
2016-12-30T10:49:16.462Z,47.41
2016-12-30T10:50:25.543Z,47.31
2016-12-30T10:51:34.236Z,47.51
2016-12-30T10:52:43.669Z,47.51
2016-12-30T10:53:53.130Z,47.7
2016-12-30T10:55:01.844Z,48.38
2016-12-30T10:56:11.319Z,48.18
2016-12-30T10:57:20.412Z,47.99
2016-12-30T10:58:29.389Z,48.38
2016-12-30T10:59:38.471Z,48.38
2016-12-30T11:00:47.937Z,48.47
2016-12-30T11:01:57.422Z,48.76
2016-12-30T11:03:06.502Z,48.66
2016-12-30T11:04:15.228Z,48.64
2016-12-30T11:05:23.923Z,48.44
2016-12-30T11:06:33.388Z,48.44
2016-12-30T11:07:42.088Z,48.64
2016-12-30T11:08:51.186Z,48.74
2016-12-30T11:10:00.653Z,48.93
2016-12-30T11:11:09.333Z,48.44
2016-12-30T11:12:18.812Z,48.35
2016-12-30T11:13:27.888Z,48.83
2016-12-30T11:14:37.770Z,48.93
2016-12-30T11:15:47.351Z,48.74
2016-12-30T11:16:56.051Z,48.64
2016-12-30T11:18:04.775Z,48.64
2016-12-30T11:19:13.872Z,48.74
2016-12-30T11:20:22.962Z,48.93
2016-12-30T11:21:32.189Z,48.93
2016-12-30T11:22:41.289Z,49.12
2016-12-30T11:23:50.361Z,49.51
2016-12-30T11:24:59.052Z,49.51
2016-12-30T11:26:08.183Z,49.32
2016-12-30T11:27:17.803Z,49.77
2016-12-30T11:28:26.887Z,49.79
2016-12-30T11:29:36.352Z,49.68
2016-12-30T11:30:45.438Z,49.58
2016-12-30T11:31:54.128Z,49.68
2016-12-30T11:33:03.594Z,49.58
2016-12-30T11:34:13.059Z,49.96
2016-12-30T11:35:21.742Z,50.15
2016-12-30T11:36:30.441Z,49.96
2016-12-30T11:37:39.520Z,49.87
2016-12-30T11:38:48.713Z,49.87
2016-12-30T11:39:57.402Z,49.77
2016-12-30T11:41:06.874Z,49.77
2016-12-30T11:42:15.574Z,49.77
2016-12-30T11:43:24.261Z,50.25
2016-12-30T11:44:33.342Z,50.25
2016-12-30T11:45:42.442Z,50.25
2016-12-30T11:46:51.514Z,49.87
2016-12-30T11:48:00.599Z,49.96
2016-12-30T11:49:10.062Z,49.87
2016-12-30T11:50:19.344Z,49.96
2016-12-30T11:51:28.020Z,50.25
2016-12-30T11:52:37.107Z,50.15
2016-12-30T11:53:46.575Z,50.25
2016-12-30T11:54:55.657Z,49.96
2016-12-30T11:56:05.487Z,49.96
2016-12-30T11:57:14.206Z,50.25
2016-12-30T11:58:24.072Z,50.06
2016-12-30T11:59:33.152Z,50.06
2016-12-30T12:00:42.236Z,49.99
2016-12-30T12:01:51.245Z,49.99
2016-12-30T12:03:00.334Z,50.27
2016-12-30T12:04:09.449Z,49.89
2016-12-30T12:05:18.588Z,49.99
2016-12-30T12:06:27.460Z,49.89
2016-12-30T12:07:37.096Z,49.89
2016-12-30T12:08:46.577Z,49.89
2016-12-30T12:09:55.648Z,49.89
2016-12-30T12:11:05.116Z,50.09
2016-12-30T12:12:14.593Z,49.99
2016-12-30T12:13:23.841Z,49.79
2016-12-30T12:14:32.924Z,50.47
2016-12-30T12:15:41.628Z,50.66
2016-12-30T12:16:50.734Z,50.57
2016-12-30T12:18:00.202Z,50.18
2016-12-30T12:19:09.254Z,50.93
2016-12-30T12:20:18.352Z,52.34
2016-12-30T12:21:27.828Z,53.96
2016-12-30T12:22:36.577Z,55.53
2016-12-30T12:23:46.067Z,57.14
2016-12-30T12:24:54.856Z,58.26
2016-12-30T12:26:03.551Z,59.67
2016-12-30T12:27:13.021Z,60.22
2016-12-30T12:28:22.544Z,61.34
2016-12-30T12:29:31.254Z,61.69
2016-12-30T12:30:41.416Z,62.9
2016-12-30T12:31:50.879Z,63.1
2016-12-30T12:32:59.957Z,63.35
2016-12-30T12:34:09.431Z,64.12
2016-12-30T12:35:18.906Z,64.56
2016-12-30T12:36:28.513Z,64.47
2016-12-30T12:37:37.584Z,64.56
2016-12-30T12:38:46.669Z,64.37
2016-12-30T12:39:56.152Z,64.53
2016-12-30T12:41:05.610Z,64.53
2016-12-30T12:42:14.638Z,64.91
2016-12-30T12:43:23.335Z,65.11
2016-12-30T12:44:32.399Z,64.91
2016-12-30T12:45:41.855Z,65.17
2016-12-30T12:46:50.929Z,64.69
2016-12-30T12:48:00.742Z,64.78
2016-12-30T12:49:09.819Z,64.78
2016-12-30T12:50:18.902Z,64.75
2016-12-30T12:51:27.596Z,65.04
2016-12-30T12:52:36.277Z,64.94
2016-12-30T12:53:45.125Z,64.75
2016-12-30T12:54:54.194Z,64.65
2016-12-30T12:56:03.675Z,64.75
2016-12-30T12:57:12.354Z,63.13
2016-12-30T12:58:21.424Z,61.92
2016-12-30T12:59:31.389Z,60.99
2016-12-30T13:00:40.476Z,59.69
2016-12-30T13:01:49.154Z,58.34
2016-12-30T13:02:59.396Z,57.51
2016-12-30T13:04:08.471Z,56.56
2016-12-30T13:05:17.691Z,55.82
2016-12-30T13:06:26.389Z,55.34
2016-12-30T13:07:35.075Z,54.41
2016-12-30T13:08:44.606Z,54.12
2016-12-30T13:09:53.713Z,54.05
2016-12-30T13:11:03.602Z,53.19
2016-12-30T13:12:12.856Z,52.74
2016-12-30T13:13:22.323Z,52.26
2016-12-30T13:14:31.011Z,52.09
2016-12-30T13:15:39.692Z,51.71
2016-12-30T13:16:49.504Z,51.51
2016-12-30T13:17:58.194Z,50.94
2016-12-30T13:19:07.939Z,51.06
2016-12-30T13:20:16.622Z,50.87
2016-12-30T13:21:25.704Z,50.49
2016-12-30T13:22:35.123Z,50.29
2016-12-30T13:23:44.893Z,50.49
2016-12-30T13:24:54.372Z,49.93
2016-12-30T13:26:03.512Z,50.42
2016-12-30T13:27:12.194Z,50.13
2016-12-30T13:28:21.498Z,49.74
2016-12-30T13:29:30.662Z,49.93
2016-12-30T13:30:39.741Z,49.74
2016-12-30T13:31:49.944Z,49.65
2016-12-30T13:32:58.693Z,49.67
2016-12-30T13:34:08.347Z,49.19
2016-12-30T13:35:17.821Z,49.1
2016-12-30T13:36:26.957Z,48.81
2016-12-30T13:37:35.686Z,48.9
2016-12-30T13:38:45.229Z,48.81
2016-12-30T13:39:54.607Z,48.43
2016-12-30T13:41:04.837Z,48.52
2016-12-30T13:42:13.920Z,48.64
2016-12-30T13:43:22.700Z,48.83
2016-12-30T13:44:31.972Z,48.45
2016-12-30T13:45:41.461Z,48.25
2016-12-30T13:46:50.535Z,48.74
2016-12-30T13:48:00.404Z,48.45
2016-12-30T13:49:09.487Z,48.54
2016-12-30T13:50:18.940Z,48.74
2016-12-30T13:51:28.193Z,48.83
2016-12-30T13:52:37.303Z,48.45
2016-12-30T13:53:46.386Z,48.74
2016-12-30T13:54:55.468Z,48.66
2016-12-30T13:56:04.543Z,48.54
2016-12-30T13:57:13.597Z,48.54
2016-12-30T13:58:22.283Z,48.45
2016-12-30T13:59:30.965Z,48.66
2016-12-30T14:00:40.044Z,48.57
2016-12-30T14:01:48.723Z,48.38
2016-12-30T14:02:57.761Z,48.66
2016-12-30T14:04:06.829Z,48.57
2016-12-30T14:05:16.688Z,48.66
2016-12-30T14:06:26.171Z,48.38
2016-12-30T14:07:35.647Z,48.28
2016-12-30T14:08:45.471Z,48.38
2016-12-30T14:09:54.948Z,48.57
2016-12-30T14:11:04.050Z,48.66
2016-12-30T14:12:13.125Z,48.57
2016-12-30T14:13:22.207Z,48.66
2016-12-30T14:14:31.444Z,48.47
2016-12-30T14:15:40.514Z,48.57
2016-12-30T14:16:49.990Z,48.76
2016-12-30T14:17:59.086Z,48.76
2016-12-30T14:19:08.217Z,48.76
2016-12-30T14:20:17.266Z,48.85
2016-12-30T14:21:26.394Z,48.38
2016-12-30T14:22:35.081Z,48.85
2016-12-30T14:23:43.779Z,48.66
2016-12-30T14:24:52.923Z,48.38
2016-12-30T14:26:01.963Z,48.38
2016-12-30T14:27:11.040Z,48.66
2016-12-30T14:28:20.503Z,48.85
2016-12-30T14:29:29.588Z,48.66
2016-12-30T14:30:38.696Z,48.76
2016-12-30T14:31:48.558Z,48.76
2016-12-30T14:32:57.633Z,48.76
2016-12-30T14:34:07.100Z,48.95
2016-12-30T14:35:16.970Z,48.95
2016-12-30T14:36:26.093Z,48.79
2016-12-30T14:37:35.320Z,48.76
2016-12-30T14:38:44.793Z,48.69
2016-12-30T14:39:53.881Z,48.69
2016-12-30T14:41:02.956Z,48.38
2016-12-30T14:42:12.436Z,48.59
2016-12-30T14:43:21.509Z,48.4
2016-12-30T14:44:30.211Z,48.3
2016-12-30T14:45:39.295Z,48.79
2016-12-30T14:46:47.997Z,48.59
2016-12-30T14:47:56.694Z,48.79
2016-12-30T14:49:06.284Z,48.69
2016-12-30T14:50:14.988Z,48.49
2016-12-30T14:51:24.886Z,48.79
2016-12-30T14:52:34.365Z,48.61